sensor_id;sensor_type;location;lat;lon;timestamp;temperature;humidity
34873;DHT22;21084;51.098;14.506;2022-12-10T11:37:53;18.60;99.90
34873;DHT22;21084;51.098;14.506;2022-12-10T11:40:40;18.30;99.90
34873;DHT22;21084;51.098;14.506;2022-12-10T11:47:46;20.10;99.90
34873;DHT22;21084;51.098;14.506;2022-12-10T11:50:25;19.30;99.90
34873;DHT22;21084;51.098;14.506;2022-12-10T11:53:16;18.80;99.90
34873;DHT22;21084;51.098;14.506;2022-12-10T11:55:53;18.60;99.90
34873;DHT22;21084;51.098;14.506;2022-12-10T11:58:45;18.60;99.90
34873;DHT22;21084;51.098;14.506;2022-12-10T12:01:24;18.60;99.90
34873;DHT22;21084;51.098;14.506;2022-12-10T12:04:10;18.60;99.90
34873;DHT22;21084;51.098;14.506;2022-12-10T12:06:59;18.60;99.90
34873;DHT22;21084;51.098;14.506;2022-12-10T12:09:36;18.70;99.90
34873;DHT22;21084;51.098;14.506;2022-12-10T12:12:22;18.70;99.90
34873;DHT22;21084;51.098;14.506;2022-12-10T12:14:57;18.60;99.90
34873;DHT22;21084;51.098;14.506;2022-12-10T12:17:28;18.60;99.90
34873;DHT22;21084;51.098;14.506;2022-12-10T12:20:03;18.70;99.90
34873;DHT22;21084;51.098;14.506;2022-12-10T12:22:37;18.50;99.90
34873;DHT22;21084;51.098;14.506;2022-12-10T12:27:45;18.30;99.90
34873;DHT22;21084;51.098;14.506;2022-12-10T12:30:17;18.00;99.90
34873;DHT22;21084;51.098;14.506;2022-12-10T12:32:53;17.70;99.90
34873;DHT22;21084;51.098;14.506;2022-12-10T12:35:28;12.70;99.90
34873;DHT22;21084;51.098;14.506;2022-12-10T12:38:06;9.10;99.90
34873;DHT22;21084;51.098;14.506;2022-12-10T12:40:40;6.70;99.90
34873;DHT22;21084;51.098;14.506;2022-12-10T12:43:14;5.10;99.90
34873;DHT22;21084;51.098;14.506;2022-12-10T12:45:46;4.10;99.90
34873;DHT22;21084;51.098;14.506;2022-12-10T12:48:21;3.50;99.90
34873;DHT22;21084;51.098;14.506;2022-12-10T12:50:53;2.90;99.90
34873;DHT22;21084;51.098;14.506;2022-12-10T12:53:23;2.60;99.90
34873;DHT22;21084;51.098;14.506;2022-12-10T12:56:04;2.40;99.90
34873;DHT22;21084;51.098;14.506;2022-12-10T12:58:39;2.20;99.90
34873;DHT22;21084;51.098;14.506;2022-12-10T13:01:18;2.00;99.90
34873;DHT22;21084;51.098;14.506;2022-12-10T13:03:48;1.90;99.90
34873;DHT22;21084;51.098;14.506;2022-12-10T13:06:22;1.80;99.90
34873;DHT22;21084;51.098;14.506;2022-12-10T13:08:57;1.70;99.90
34873;DHT22;21084;51.098;14.506;2022-12-10T13:11:32;1.60;99.90
34873;DHT22;21084;51.098;14.506;2022-12-10T13:14:15;1.60;99.90
34873;DHT22;21084;51.098;14.506;2022-12-10T13:17:08;1.50;99.90
34873;DHT22;21084;51.098;14.506;2022-12-10T13:19:37;1.50;99.90
34873;DHT22;21084;51.098;14.506;2022-12-10T13:22:10;1.50;99.90
34873;DHT22;21084;51.098;14.506;2022-12-10T13:25:09;1.40;99.90
34873;DHT22;21084;51.098;14.506;2022-12-10T13:27:39;1.30;99.90
34873;DHT22;21084;51.098;14.506;2022-12-10T13:30:34;1.20;99.90
34873;DHT22;21084;51.098;14.506;2022-12-10T13:33:14;1.20;99.90
34873;DHT22;21084;51.098;14.506;2022-12-10T13:35:51;1.10;99.90
34873;DHT22;21084;51.098;14.506;2022-12-10T13:38:39;1.10;99.90
34873;DHT22;21084;51.098;14.506;2022-12-10T13:41:08;1.10;99.90
34873;DHT22;21084;51.098;14.506;2022-12-10T13:43:56;1.10;99.90
34873;DHT22;21084;51.098;14.506;2022-12-10T13:46:59;1.10;99.90
34873;DHT22;21084;51.098;14.506;2022-12-10T13:49:30;1.00;99.90
34873;DHT22;21084;51.098;14.506;2022-12-10T13:52:01;1.00;99.90
34873;DHT22;21084;51.098;14.506;2022-12-10T13:55:18;0.90;99.90
34873;DHT22;21084;51.098;14.506;2022-12-10T13:58:17;0.90;99.90
34873;DHT22;21084;51.098;14.506;2022-12-10T14:00:51;0.90;99.90
34873;DHT22;21084;51.098;14.506;2022-12-10T14:03:47;0.90;99.90
34873;DHT22;21084;51.098;14.506;2022-12-10T14:06:20;0.90;99.90
34873;DHT22;21084;51.098;14.506;2022-12-10T14:08:58;0.90;99.90
34873;DHT22;21084;51.098;14.506;2022-12-10T14:11:30;0.90;99.90
34873;DHT22;21084;51.098;14.506;2022-12-10T14:14:05;0.90;99.90
34873;DHT22;21084;51.098;14.506;2022-12-10T14:16:35;0.80;99.90
34873;DHT22;21084;51.098;14.506;2022-12-10T14:19:11;0.80;99.90
34873;DHT22;21084;51.098;14.506;2022-12-10T14:21:42;0.80;99.90
34873;DHT22;21084;51.098;14.506;2022-12-10T14:24:39;0.80;99.90
34873;DHT22;21084;51.098;14.506;2022-12-10T14:27:13;0.80;99.90
34873;DHT22;21084;51.098;14.506;2022-12-10T14:29:44;0.70;99.90
34873;DHT22;21084;51.098;14.506;2022-12-10T14:32:13;0.80;99.90
34873;DHT22;21084;51.098;14.506;2022-12-10T14:34:43;0.80;99.90
34873;DHT22;21084;51.098;14.506;2022-12-10T14:37:14;0.70;99.90
34873;DHT22;21084;51.098;14.506;2022-12-10T14:39:43;0.60;99.90
34873;DHT22;21084;51.098;14.506;2022-12-10T14:42:14;0.60;99.90
34873;DHT22;21084;51.098;14.506;2022-12-10T14:44:45;0.60;99.90
34873;DHT22;21084;51.098;14.506;2022-12-10T14:47:16;0.70;99.90
34873;DHT22;21084;51.098;14.506;2022-12-10T14:49:48;0.60;99.90
34873;DHT22;21084;51.098;14.506;2022-12-10T14:52:19;0.60;99.90
34873;DHT22;21084;51.098;14.506;2022-12-10T14:54:48;0.50;99.90
34873;DHT22;21084;51.098;14.506;2022-12-10T14:57:20;0.50;99.90
34873;DHT22;21084;51.098;14.506;2022-12-10T14:59:57;0.40;99.90
34873;DHT22;21084;51.098;14.506;2022-12-10T15:02:29;0.40;99.90
34873;DHT22;21084;51.098;14.506;2022-12-10T15:05:00;0.40;99.90
34873;DHT22;21084;51.098;14.506;2022-12-10T15:07:32;0.40;99.90
34873;DHT22;21084;51.098;14.506;2022-12-10T15:10:07;0.40;99.90
34873;DHT22;21084;51.098;14.506;2022-12-10T15:12:43;0.40;99.90
34873;DHT22;21084;51.098;14.506;2022-12-10T15:15:14;0.40;99.90
34873;DHT22;21084;51.098;14.506;2022-12-10T15:17:54;0.40;99.90
34873;DHT22;21084;51.098;14.506;2022-12-10T15:20:26;0.30;99.90
34873;DHT22;21084;51.098;14.506;2022-12-10T15:22:54;0.30;99.90
34873;DHT22;21084;51.098;14.506;2022-12-10T15:25:41;0.40;99.90
34873;DHT22;21084;51.098;14.506;2022-12-10T15:28:23;0.30;99.90
34873;DHT22;21084;51.098;14.506;2022-12-10T15:30:56;0.30;99.90
34873;DHT22;21084;51.098;14.506;2022-12-10T15:33:33;0.30;99.90
34873;DHT22;21084;51.098;14.506;2022-12-10T15:36:20;0.30;99.90
34873;DHT22;21084;51.098;14.506;2022-12-10T15:38:48;0.30;99.90
34873;DHT22;21084;51.098;14.506;2022-12-10T15:41:22;0.30;99.90
34873;DHT22;21084;51.098;14.506;2022-12-10T15:44:03;0.30;99.90
34873;DHT22;21084;51.098;14.506;2022-12-10T15:46:32;0.20;99.90
34873;DHT22;21084;51.098;14.506;2022-12-10T15:49:00;0.20;99.90
34873;DHT22;21084;51.098;14.506;2022-12-10T15:51:30;0.20;99.90
34873;DHT22;21084;51.098;14.506;2022-12-10T15:53:59;0.10;99.90
34873;DHT22;21084;51.098;14.506;2022-12-10T15:56:27;0.10;99.90
34873;DHT22;21084;51.098;14.506;2022-12-10T15:58:55;0.20;99.90
34873;DHT22;21084;51.098;14.506;2022-12-10T16:01:24;0.10;99.90
34873;DHT22;21084;51.098;14.506;2022-12-10T16:03:52;0.10;99.90
34873;DHT22;21084;51.098;14.506;2022-12-10T16:06:20;0.10;99.90
34873;DHT22;21084;51.098;14.506;2022-12-10T16:08:50;0.20;99.90
34873;DHT22;21084;51.098;14.506;2022-12-10T16:11:19;0.10;99.90
34873;DHT22;21084;51.098;14.506;2022-12-10T16:13:51;0.10;99.90
34873;DHT22;21084;51.098;14.506;2022-12-10T16:16:20;0.10;99.90
34873;DHT22;21084;51.098;14.506;2022-12-10T16:18:49;0.10;99.90
34873;DHT22;21084;51.098;14.506;2022-12-10T16:21:17;0.10;99.90
34873;DHT22;21084;51.098;14.506;2022-12-10T16:23:46;0.10;99.90
34873;DHT22;21084;51.098;14.506;2022-12-10T16:26:18;0.00;99.90
34873;DHT22;21084;51.098;14.506;2022-12-10T16:28:48;0.10;99.90
34873;DHT22;21084;51.098;14.506;2022-12-10T16:31:18;0.00;99.90
34873;DHT22;21084;51.098;14.506;2022-12-10T16:33:47;0.00;99.90
34873;DHT22;21084;51.098;14.506;2022-12-10T16:36:18;0.00;99.90
34873;DHT22;21084;51.098;14.506;2022-12-10T16:38:47;-0.10;99.90
34873;DHT22;21084;51.098;14.506;2022-12-10T16:41:21;-0.10;99.90
34873;DHT22;21084;51.098;14.506;2022-12-10T16:43:49;-0.10;99.90
34873;DHT22;21084;51.098;14.506;2022-12-10T16:46:18;-0.10;99.90
34873;DHT22;21084;51.098;14.506;2022-12-10T16:48:47;-0.10;99.90
34873;DHT22;21084;51.098;14.506;2022-12-10T16:51:20;-0.10;99.90
34873;DHT22;21084;51.098;14.506;2022-12-10T16:53:49;-0.10;99.90
34873;DHT22;21084;51.098;14.506;2022-12-10T16:56:19;-0.10;99.90
34873;DHT22;21084;51.098;14.506;2022-12-10T16:58:47;-0.10;99.90
34873;DHT22;21084;51.098;14.506;2022-12-10T17:01:18;-0.10;99.90
34873;DHT22;21084;51.098;14.506;2022-12-10T17:03:48;-0.20;99.90
34873;DHT22;21084;51.098;14.506;2022-12-10T17:06:17;-0.20;99.90
34873;DHT22;21084;51.098;14.506;2022-12-10T17:08:46;-0.10;99.90
34873;DHT22;21084;51.098;14.506;2022-12-10T17:11:19;-0.20;99.90
34873;DHT22;21084;51.098;14.506;2022-12-10T17:14:12;-0.20;99.90
34873;DHT22;21084;51.098;14.506;2022-12-10T17:16:42;-0.20;99.90
34873;DHT22;21084;51.098;14.506;2022-12-10T17:19:11;-0.20;99.90
34873;DHT22;21084;51.098;14.506;2022-12-10T17:21:40;-0.20;99.90
34873;DHT22;21084;51.098;14.506;2022-12-10T17:24:08;-0.20;99.90
34873;DHT22;21084;51.098;14.506;2022-12-10T17:26:40;-0.20;99.90
34873;DHT22;21084;51.098;14.506;2022-12-10T17:29:14;-0.20;99.90
34873;DHT22;21084;51.098;14.506;2022-12-10T17:31:43;-0.30;99.90
34873;DHT22;21084;51.098;14.506;2022-12-10T17:34:13;-0.30;99.90
34873;DHT22;21084;51.098;14.506;2022-12-10T17:36:43;-0.20;99.90
34873;DHT22;21084;51.098;14.506;2022-12-10T17:39:13;-0.20;99.90
34873;DHT22;21084;51.098;14.506;2022-12-10T17:41:50;-0.20;99.90
34873;DHT22;21084;51.098;14.506;2022-12-10T17:44:18;-0.30;99.90
34873;DHT22;21084;51.098;14.506;2022-12-10T17:46:49;-0.30;99.90
34873;DHT22;21084;51.098;14.506;2022-12-10T17:49:17;-0.30;99.90
34873;DHT22;21084;51.098;14.506;2022-12-10T17:51:46;-0.30;99.90
34873;DHT22;21084;51.098;14.506;2022-12-10T17:54:14;-0.30;99.90
34873;DHT22;21084;51.098;14.506;2022-12-10T17:56:43;-0.30;99.90
34873;DHT22;21084;51.098;14.506;2022-12-10T17:59:14;-0.20;99.90
34873;DHT22;21084;51.098;14.506;2022-12-10T18:01:42;-0.30;99.90
34873;DHT22;21084;51.098;14.506;2022-12-10T18:04:15;-0.20;99.90
34873;DHT22;21084;51.098;14.506;2022-12-10T18:06:44;-0.20;99.90
34873;DHT22;21084;51.098;14.506;2022-12-10T18:09:13;-0.20;99.90
34873;DHT22;21084;51.098;14.506;2022-12-10T18:11:42;-0.30;99.90
34873;DHT22;21084;51.098;14.506;2022-12-10T18:14:37;-0.20;99.90
34873;DHT22;21084;51.098;14.506;2022-12-10T18:17:10;-0.20;99.90
34873;DHT22;21084;51.098;14.506;2022-12-10T18:19:38;-0.20;99.90
34873;DHT22;21084;51.098;14.506;2022-12-10T18:22:12;-0.20;99.90
34873;DHT22;21084;51.098;14.506;2022-12-10T18:24:40;-0.20;99.90
34873;DHT22;21084;51.098;14.506;2022-12-10T18:27:09;-0.20;99.90
34873;DHT22;21084;51.098;14.506;2022-12-10T18:29:39;-0.20;99.90
34873;DHT22;21084;51.098;14.506;2022-12-10T18:32:08;-0.10;99.90
34873;DHT22;21084;51.098;14.506;2022-12-10T18:34:37;-0.10;99.90
34873;DHT22;21084;51.098;14.506;2022-12-10T18:37:08;-0.10;99.90
34873;DHT22;21084;51.098;14.506;2022-12-10T18:39:37;-0.20;99.90
34873;DHT22;21084;51.098;14.506;2022-12-10T18:42:06;-0.20;99.90
34873;DHT22;21084;51.098;14.506;2022-12-10T18:44:34;-0.20;99.90
34873;DHT22;21084;51.098;14.506;2022-12-10T18:47:05;-0.20;99.90
34873;DHT22;21084;51.098;14.506;2022-12-10T18:49:33;-0.30;99.90
34873;DHT22;21084;51.098;14.506;2022-12-10T18:52:02;-0.30;99.90
34873;DHT22;21084;51.098;14.506;2022-12-10T18:54:30;-0.30;99.90
34873;DHT22;21084;51.098;14.506;2022-12-10T18:56:59;-0.30;99.90
34873;DHT22;21084;51.098;14.506;2022-12-10T18:59:47;-0.30;99.90
34873;DHT22;21084;51.098;14.506;2022-12-10T19:02:17;-0.30;99.90
34873;DHT22;21084;51.098;14.506;2022-12-10T19:04:45;-0.30;99.90
34873;DHT22;21084;51.098;14.506;2022-12-10T19:07:14;-0.30;99.90
34873;DHT22;21084;51.098;14.506;2022-12-10T19:09:42;-0.30;99.90
34873;DHT22;21084;51.098;14.506;2022-12-10T19:12:11;-0.30;99.90
34873;DHT22;21084;51.098;14.506;2022-12-10T19:14:39;-0.30;99.90
34873;DHT22;21084;51.098;14.506;2022-12-10T19:17:08;-0.30;99.90
34873;DHT22;21084;51.098;14.506;2022-12-10T19:19:38;-0.30;99.90
34873;DHT22;21084;51.098;14.506;2022-12-10T19:22:06;-0.30;99.90
34873;DHT22;21084;51.098;14.506;2022-12-10T19:24:35;-0.30;99.90
34873;DHT22;21084;51.098;14.506;2022-12-10T19:27:03;-0.30;99.90
34873;DHT22;21084;51.098;14.506;2022-12-10T19:29:32;-0.30;99.90
34873;DHT22;21084;51.098;14.506;2022-12-10T19:32:00;-0.30;99.90
34873;DHT22;21084;51.098;14.506;2022-12-10T19:34:29;-0.30;99.90
34873;DHT22;21084;51.098;14.506;2022-12-10T19:36:59;-0.30;99.90
34873;DHT22;21084;51.098;14.506;2022-12-10T19:39:28;-0.40;99.90
34873;DHT22;21084;51.098;14.506;2022-12-10T19:41:58;-0.40;99.90
34873;DHT22;21084;51.098;14.506;2022-12-10T19:44:27;-0.40;99.90
34873;DHT22;21084;51.098;14.506;2022-12-10T19:46:55;-0.50;99.90
34873;DHT22;21084;51.098;14.506;2022-12-10T19:49:24;-0.50;99.90
34873;DHT22;21084;51.098;14.506;2022-12-10T19:51:52;-0.50;99.90
34873;DHT22;21084;51.098;14.506;2022-12-10T19:54:22;-0.50;99.90
34873;DHT22;21084;51.098;14.506;2022-12-10T19:56:50;-0.50;99.90
34873;DHT22;21084;51.098;14.506;2022-12-10T19:59:19;-0.50;99.90
34873;DHT22;21084;51.098;14.506;2022-12-10T20:01:47;-0.50;99.90
34873;DHT22;21084;51.098;14.506;2022-12-10T20:04:17;-0.50;99.90
34873;DHT22;21084;51.098;14.506;2022-12-10T20:06:46;-0.50;99.90
34873;DHT22;21084;51.098;14.506;2022-12-10T20:09:17;-0.50;99.90
34873;DHT22;21084;51.098;14.506;2022-12-10T20:11:49;-0.60;99.90
34873;DHT22;21084;51.098;14.506;2022-12-10T20:14:18;-0.60;99.90
34873;DHT22;21084;51.098;14.506;2022-12-10T20:16:47;-0.60;99.90
34873;DHT22;21084;51.098;14.506;2022-12-10T20:19:18;-0.60;99.90
34873;DHT22;21084;51.098;14.506;2022-12-10T20:21:47;-0.60;99.90
34873;DHT22;21084;51.098;14.506;2022-12-10T20:24:16;-0.50;99.90
34873;DHT22;21084;51.098;14.506;2022-12-10T20:26:46;-0.60;99.90
34873;DHT22;21084;51.098;14.506;2022-12-10T20:29:18;-0.70;99.90
34873;DHT22;21084;51.098;14.506;2022-12-10T20:31:47;-0.70;99.90
34873;DHT22;21084;51.098;14.506;2022-12-10T20:34:16;-0.70;99.90
34873;DHT22;21084;51.098;14.506;2022-12-10T20:36:45;-0.70;99.90
34873;DHT22;21084;51.098;14.506;2022-12-10T20:39:16;-0.70;99.90
34873;DHT22;21084;51.098;14.506;2022-12-10T20:41:46;-0.70;99.90
34873;DHT22;21084;51.098;14.506;2022-12-10T20:44:17;-0.70;99.90
34873;DHT22;21084;51.098;14.506;2022-12-10T20:46:46;-0.70;99.90
34873;DHT22;21084;51.098;14.506;2022-12-10T20:49:17;-0.70;99.90
34873;DHT22;21084;51.098;14.506;2022-12-10T20:51:46;-0.70;99.90
34873;DHT22;21084;51.098;14.506;2022-12-10T20:54:15;-0.70;99.90
34873;DHT22;21084;51.098;14.506;2022-12-10T20:56:43;-0.70;99.90
34873;DHT22;21084;51.098;14.506;2022-12-10T20:59:13;-0.70;99.90
34873;DHT22;21084;51.098;14.506;2022-12-10T21:01:43;-0.70;99.90
34873;DHT22;21084;51.098;14.506;2022-12-10T21:04:12;-0.70;99.90
34873;DHT22;21084;51.098;14.506;2022-12-10T21:06:41;-0.80;99.90
34873;DHT22;21084;51.098;14.506;2022-12-10T21:09:10;-0.70;99.90
34873;DHT22;21084;51.098;14.506;2022-12-10T21:11:39;-0.70;99.90
34873;DHT22;21084;51.098;14.506;2022-12-10T21:14:08;-0.80;99.90
34873;DHT22;21084;51.098;14.506;2022-12-10T21:16:58;-0.80;99.90
34873;DHT22;21084;51.098;14.506;2022-12-10T21:19:27;-0.80;99.90
34873;DHT22;21084;51.098;14.506;2022-12-10T21:21:56;-0.80;99.90
34873;DHT22;21084;51.098;14.506;2022-12-10T21:24:24;-0.80;99.90
34873;DHT22;21084;51.098;14.506;2022-12-10T21:26:53;-0.80;99.90
34873;DHT22;21084;51.098;14.506;2022-12-10T21:29:22;-0.80;99.90
34873;DHT22;21084;51.098;14.506;2022-12-10T21:31:51;-0.80;99.90
34873;DHT22;21084;51.098;14.506;2022-12-10T21:34:21;-0.80;99.90
34873;DHT22;21084;51.098;14.506;2022-12-10T21:36:50;-0.80;99.90
34873;DHT22;21084;51.098;14.506;2022-12-10T21:39:18;-0.80;99.90
34873;DHT22;21084;51.098;14.506;2022-12-10T21:41:51;-0.80;99.90
34873;DHT22;21084;51.098;14.506;2022-12-10T21:44:37;-0.80;99.90
34873;DHT22;21084;51.098;14.506;2022-12-10T21:47:06;-0.80;99.90
34873;DHT22;21084;51.098;14.506;2022-12-10T21:49:35;-0.80;99.90
34873;DHT22;21084;51.098;14.506;2022-12-10T21:52:04;-0.80;99.90
34873;DHT22;21084;51.098;14.506;2022-12-10T21:54:33;-0.90;99.90
34873;DHT22;21084;51.098;14.506;2022-12-10T21:57:01;-0.90;99.90
34873;DHT22;21084;51.098;14.506;2022-12-10T21:59:29;-1.00;99.90
34873;DHT22;21084;51.098;14.506;2022-12-10T22:01:58;-0.90;99.90
34873;DHT22;21084;51.098;14.506;2022-12-10T22:04:27;-1.00;99.90
34873;DHT22;21084;51.098;14.506;2022-12-10T22:06:57;-0.90;99.90
34873;DHT22;21084;51.098;14.506;2022-12-10T22:09:25;-1.00;99.90
34873;DHT22;21084;51.098;14.506;2022-12-10T22:11:54;-1.00;99.90
34873;DHT22;21084;51.098;14.506;2022-12-10T22:14:22;-1.00;99.90
34873;DHT22;21084;51.098;14.506;2022-12-10T22:16:50;-1.00;99.90
34873;DHT22;21084;51.098;14.506;2022-12-10T22:19:19;-1.00;99.90
34873;DHT22;21084;51.098;14.506;2022-12-10T22:21:48;-1.00;99.90
34873;DHT22;21084;51.098;14.506;2022-12-10T22:24:17;-1.00;99.90
34873;DHT22;21084;51.098;14.506;2022-12-10T22:26:46;-1.00;99.90
34873;DHT22;21084;51.098;14.506;2022-12-10T22:29:14;-1.00;99.90
34873;DHT22;21084;51.098;14.506;2022-12-10T22:31:43;-1.10;99.90
34873;DHT22;21084;51.098;14.506;2022-12-10T22:34:11;-1.00;99.90
34873;DHT22;21084;51.098;14.506;2022-12-10T22:36:40;-1.00;99.90
34873;DHT22;21084;51.098;14.506;2022-12-10T22:39:08;-1.00;99.90
34873;DHT22;21084;51.098;14.506;2022-12-10T22:41:38;-1.00;99.90
34873;DHT22;21084;51.098;14.506;2022-12-10T22:44:06;-1.00;99.90
34873;DHT22;21084;51.098;14.506;2022-12-10T22:46:35;-1.00;99.90
34873;DHT22;21084;51.098;14.506;2022-12-10T22:49:03;-1.00;99.90
34873;DHT22;21084;51.098;14.506;2022-12-10T22:51:32;-1.00;99.90
34873;DHT22;21084;51.098;14.506;2022-12-10T22:54:00;-1.00;99.90
34873;DHT22;21084;51.098;14.506;2022-12-10T22:56:30;-1.00;99.90
34873;DHT22;21084;51.098;14.506;2022-12-10T22:58:59;-1.10;99.90
34873;DHT22;21084;51.098;14.506;2022-12-10T23:01:28;-1.10;99.90
34873;DHT22;21084;51.098;14.506;2022-12-10T23:03:56;-1.10;99.90
34873;DHT22;21084;51.098;14.506;2022-12-10T23:06:25;-1.10;99.90
34873;DHT22;21084;51.098;14.506;2022-12-10T23:08:53;-1.20;99.90
34873;DHT22;21084;51.098;14.506;2022-12-10T23:11:21;-1.10;99.90
34873;DHT22;21084;51.098;14.506;2022-12-10T23:13:51;-1.20;99.90
34873;DHT22;21084;51.098;14.506;2022-12-10T23:16:19;-1.20;99.90
34873;DHT22;21084;51.098;14.506;2022-12-10T23:18:48;-1.20;99.90
34873;DHT22;21084;51.098;14.506;2022-12-10T23:21:18;-1.20;99.90
34873;DHT22;21084;51.098;14.506;2022-12-10T23:23:47;-1.10;99.90
34873;DHT22;21084;51.098;14.506;2022-12-10T23:26:17;-1.20;99.90
34873;DHT22;21084;51.098;14.506;2022-12-10T23:28:46;-1.20;99.90
34873;DHT22;21084;51.098;14.506;2022-12-10T23:31:16;-1.10;99.90
34873;DHT22;21084;51.098;14.506;2022-12-10T23:33:46;-1.10;99.90
34873;DHT22;21084;51.098;14.506;2022-12-10T23:36:15;-1.20;99.90
34873;DHT22;21084;51.098;14.506;2022-12-10T23:38:43;-1.10;99.90
34873;DHT22;21084;51.098;14.506;2022-12-10T23:41:12;-1.10;99.90
34873;DHT22;21084;51.098;14.506;2022-12-10T23:43:40;-1.10;99.90
34873;DHT22;21084;51.098;14.506;2022-12-10T23:46:09;-1.10;99.90
34873;DHT22;21084;51.098;14.506;2022-12-10T23:48:38;-1.10;99.90
34873;DHT22;21084;51.098;14.506;2022-12-10T23:51:08;-1.10;99.90
34873;DHT22;21084;51.098;14.506;2022-12-10T23:53:36;-1.10;99.90
34873;DHT22;21084;51.098;14.506;2022-12-10T23:56:13;-1.20;99.90
34873;DHT22;21084;51.098;14.506;2022-12-10T23:58:42;-1.20;99.90
